sensor_id;sensor_type;location;lat;lon;timestamp;pressure;altitude;pressure_sealevel;temperature;humidity
14594;BME280;7383;52.354;9.756;2022-09-20T00:00:49;-12673.69;;;12.56;100.00
14594;BME280;7383;52.354;9.756;2022-09-20T00:03:22;-12673.59;;;12.55;100.00
14594;BME280;7383;52.354;9.756;2022-09-20T00:06:02;-12673.44;;;12.54;100.00
14594;BME280;7383;52.354;9.756;2022-09-20T00:08:30;-12673.25;;;12.53;100.00
14594;BME280;7383;52.354;9.756;2022-09-20T00:11:08;-12673.53;;;12.55;100.00
14594;BME280;7383;52.354;9.756;2022-09-20T00:13:45;-12673.00;;;12.52;100.00
14594;BME280;7383;52.354;9.756;2022-09-20T00:16:27;-12673.00;;;12.52;100.00
14594;BME280;7383;52.354;9.756;2022-09-20T00:19:11;-12672.81;;;12.51;100.00
14594;BME280;7383;52.354;9.756;2022-09-20T00:21:44;-12673.16;;;12.53;100.00
14594;BME280;7383;52.354;9.756;2022-09-20T00:24:15;-12672.66;;;12.50;100.00
14594;BME280;7383;52.354;9.756;2022-09-20T00:26:56;-12673.00;;;12.52;100.00
14594;BME280;7383;52.354;9.756;2022-09-20T00:29:32;-12672.56;;;12.49;100.00
14594;BME280;7383;52.354;9.756;2022-09-20T00:32:03;-12672.81;;;12.51;100.00
14594;BME280;7383;52.354;9.756;2022-09-20T00:34:30;-12672.47;;;12.49;100.00
14594;BME280;7383;52.354;9.756;2022-09-20T00:37:16;-12672.13;;;12.47;100.00
14594;BME280;7383;52.354;9.756;2022-09-20T00:39:45;-12672.31;;;12.48;100.00
14594;BME280;7383;52.354;9.756;2022-09-20T00:42:17;-12672.38;;;12.48;100.00
14594;BME280;7383;52.354;9.756;2022-09-20T00:45:23;-12671.78;;;12.45;100.00
14594;BME280;7383;52.354;9.756;2022-09-20T00:48:15;-12671.25;;;12.42;100.00
14594;BME280;7383;52.354;9.756;2022-09-20T00:50:48;-12670.72;;;12.39;100.00
14594;BME280;7383;52.354;9.756;2022-09-20T00:53:29;-12670.56;;;12.38;100.00
14594;BME280;7383;52.354;9.756;2022-09-20T00:56:21;-12669.84;;;12.33;100.00
14594;BME280;7383;52.354;9.756;2022-09-20T00:58:53;-12669.50;;;12.31;100.00
14594;BME280;7383;52.354;9.756;2022-09-20T01:01:35;-12669.44;;;12.31;100.00
14594;BME280;7383;52.354;9.756;2022-09-20T01:04:22;-12669.34;;;12.30;100.00
14594;BME280;7383;52.354;9.756;2022-09-20T01:06:53;-12668.81;;;12.27;100.00
14594;BME280;7383;52.354;9.756;2022-09-20T01:09:26;-12668.81;;;12.27;100.00
14594;BME280;7383;52.354;9.756;2022-09-20T01:11:54;-12668.72;;;12.27;100.00
14594;BME280;7383;52.354;9.756;2022-09-20T01:18:02;-12667.78;;;12.21;100.00
14594;BME280;7383;52.354;9.756;2022-09-20T01:20:34;-12667.78;;;12.21;100.00
14594;BME280;7383;52.354;9.756;2022-09-20T01:23:24;-12667.69;;;12.21;100.00
14594;BME280;7383;52.354;9.756;2022-09-20T01:26:17;-12667.41;;;12.19;100.00
14594;BME280;7383;52.354;9.756;2022-09-20T01:29:21;-12667.06;;;12.17;100.00
14594;BME280;7383;52.354;9.756;2022-09-20T01:32:07;-12666.38;;;12.13;100.00
14594;BME280;7383;52.354;9.756;2022-09-20T01:34:56;-12666.91;;;12.16;100.00
14594;BME280;7383;52.354;9.756;2022-09-20T01:37:37;-12666.72;;;12.15;100.00
14594;BME280;7383;52.354;9.756;2022-09-20T01:40:38;-12667.41;;;12.19;100.00
14594;BME280;7383;52.354;9.756;2022-09-20T01:43:33;-12667.16;;;12.18;100.00
14594;BME280;7383;52.354;9.756;2022-09-20T01:47:43;-12667.69;;;12.21;100.00
14594;BME280;7383;52.354;9.756;2022-09-20T01:50:18;-12667.06;;;12.17;100.00
14594;BME280;7383;52.354;9.756;2022-09-20T01:53:42;-12667.94;;;12.22;100.00
14594;BME280;7383;52.354;9.756;2022-09-20T01:56:53;-12668.13;;;12.23;100.00
14594;BME280;7383;52.354;9.756;2022-09-20T01:59:49;-12668.28;;;12.24;100.00
14594;BME280;7383;52.354;9.756;2022-09-20T02:09:00;-12666.47;;;12.14;100.00
14594;BME280;7383;52.354;9.756;2022-09-20T02:11:42;-12665.84;;;12.10;100.00
14594;BME280;7383;52.354;9.756;2022-09-20T02:14:29;-12665.50;;;12.08;100.00
14594;BME280;7383;52.354;9.756;2022-09-20T02:17:13;-12664.91;;;12.05;100.00
14594;BME280;7383;52.354;9.756;2022-09-20T02:19:56;-12664.63;;;12.03;100.00
14594;BME280;7383;52.354;9.756;2022-09-20T02:22:41;-12664.13;;;12.00;100.00
14594;BME280;7383;52.354;9.756;2022-09-20T02:25:41;-12663.75;;;11.98;100.00
14594;BME280;7383;52.354;9.756;2022-09-20T02:28:22;-12662.97;;;11.94;100.00
14594;BME280;7383;52.354;9.756;2022-09-20T02:30:57;-12662.72;;;11.92;100.00
14594;BME280;7383;52.354;9.756;2022-09-20T02:33:51;-12662.72;;;11.92;100.00
14594;BME280;7383;52.354;9.756;2022-09-20T02:36:35;-12662.63;;;11.92;100.00
14594;BME280;7383;52.354;9.756;2022-09-20T02:39:20;-12662.28;;;11.90;100.00
14594;BME280;7383;52.354;9.756;2022-09-20T02:42:03;-12662.28;;;11.90;100.00
14594;BME280;7383;52.354;9.756;2022-09-20T02:45:00;-12661.84;;;11.87;100.00
14594;BME280;7383;52.354;9.756;2022-09-20T02:47:32;-12661.66;;;11.86;100.00
14594;BME280;7383;52.354;9.756;2022-09-20T02:50:17;-12661.66;;;11.86;100.00
14594;BME280;7383;52.354;9.756;2022-09-20T02:53:10;-12661.59;;;11.86;100.00
14594;BME280;7383;52.354;9.756;2022-09-20T02:55:58;-12661.50;;;11.85;100.00
14594;BME280;7383;52.354;9.756;2022-09-20T02:58:44;-12661.59;;;11.86;100.00
14594;BME280;7383;52.354;9.756;2022-09-20T03:01:37;-12662.09;;;11.89;100.00
14594;BME280;7383;52.354;9.756;2022-09-20T03:04:36;-12662.63;;;11.92;100.00
14594;BME280;7383;52.354;9.756;2022-09-20T03:07:17;-12663.06;;;11.94;100.00
14594;BME280;7383;52.354;9.756;2022-09-20T03:09:55;-12663.06;;;11.94;100.00
14594;BME280;7383;52.354;9.756;2022-09-20T03:12:41;-12663.69;;;11.98;100.00
14594;BME280;7383;52.354;9.756;2022-09-20T03:15:32;-12664.03;;;12.00;100.00
14594;BME280;7383;52.354;9.756;2022-09-20T03:18:28;-12664.47;;;12.02;100.00
14594;BME280;7383;52.354;9.756;2022-09-20T03:21:34;-12664.97;;;12.05;100.00
14594;BME280;7383;52.354;9.756;2022-09-20T03:24:12;-12664.81;;;12.04;100.00
14594;BME280;7383;52.354;9.756;2022-09-20T03:26:54;-12665.41;;;12.08;100.00
14594;BME280;7383;52.354;9.756;2022-09-20T03:29:50;-12666.38;;;12.13;100.00
14594;BME280;7383;52.354;9.756;2022-09-20T03:32:47;-12666.03;;;12.11;100.00
14594;BME280;7383;52.354;9.756;2022-09-20T03:35:42;-12665.78;;;12.10;100.00
14594;BME280;7383;52.354;9.756;2022-09-20T03:38:36;-12666.03;;;12.11;100.00
14594;BME280;7383;52.354;9.756;2022-09-20T03:41:29;-12666.38;;;12.13;100.00
14594;BME280;7383;52.354;9.756;2022-09-20T03:44:14;-12666.56;;;12.14;100.00
14594;BME280;7383;52.354;9.756;2022-09-20T03:46:55;-12667.00;;;12.17;100.00
14594;BME280;7383;52.354;9.756;2022-09-20T03:49:51;-12667.50;;;12.20;100.00
14594;BME280;7383;52.354;9.756;2022-09-20T03:52:42;-12666.91;;;12.16;100.00
14594;BME280;7383;52.354;9.756;2022-09-20T03:55:42;-12667.25;;;12.18;100.00
14594;BME280;7383;52.354;9.756;2022-09-20T03:58:23;-12667.00;;;12.17;100.00
14594;BME280;7383;52.354;9.756;2022-09-20T04:01:07;-12667.00;;;12.17;100.00
14594;BME280;7383;52.354;9.756;2022-09-20T04:04:00;-12667.50;;;12.20;100.00
14594;BME280;7383;52.354;9.756;2022-09-20T04:13:53;-12668.47;;;12.25;100.00
14594;BME280;7383;52.354;9.756;2022-09-20T04:16:26;-12668.72;;;12.27;100.00
14594;BME280;7383;52.354;9.756;2022-09-20T04:19:16;-12668.47;;;12.25;100.00
14594;BME280;7383;52.354;9.756;2022-09-20T04:21:55;-12668.38;;;12.25;100.00
14594;BME280;7383;52.354;9.756;2022-09-20T04:24:34;-12669.06;;;12.29;100.00
14594;BME280;7383;52.354;9.756;2022-09-20T04:27:42;-12669.06;;;12.29;100.00
14594;BME280;7383;52.354;9.756;2022-09-20T04:30:30;-12668.03;;;12.23;100.00
14594;BME280;7383;52.354;9.756;2022-09-20T04:33:20;-12667.41;;;12.19;100.00
14594;BME280;7383;52.354;9.756;2022-09-20T04:36:08;-12667.94;;;12.22;100.00
14594;BME280;7383;52.354;9.756;2022-09-20T04:39:13;-12668.47;;;12.25;100.00
14594;BME280;7383;52.354;9.756;2022-09-20T04:48:47;-12670.56;;;12.38;100.00
14594;BME280;7383;52.354;9.756;2022-09-20T04:51:45;-12671.25;;;12.42;100.00
14594;BME280;7383;52.354;9.756;2022-09-20T04:54:57;-12670.72;;;12.39;100.00
14594;BME280;7383;52.354;9.756;2022-09-20T05:21:17;-12670.66;;;12.38;100.00
14594;BME280;7383;52.354;9.756;2022-09-20T05:24:21;-12669.94;;;12.34;100.00
14594;BME280;7383;52.354;9.756;2022-09-20T05:27:15;-12670.81;;;12.39;100.00
14594;BME280;7383;52.354;9.756;2022-09-20T05:34:15;-12671.00;;;12.40;100.00
14594;BME280;7383;52.354;9.756;2022-09-20T05:39:53;-12670.22;;;12.36;100.00
14594;BME280;7383;52.354;9.756;2022-09-20T05:45:22;-12672.13;;;12.47;100.00
14594;BME280;7383;52.354;9.756;2022-09-20T05:57:41;-12671.69;;;12.44;100.00
14594;BME280;7383;52.354;9.756;2022-09-20T06:20:20;-12674.31;;;12.59;100.00
14594;BME280;7383;52.354;9.756;2022-09-20T06:32:17;-12673.59;;;12.55;100.00
14594;BME280;7383;52.354;9.756;2022-09-20T06:37:46;-12674.13;;;12.58;100.00
14594;BME280;7383;52.354;9.756;2022-09-20T06:40:38;-12674.38;;;12.60;100.00
14594;BME280;7383;52.354;9.756;2022-09-20T06:43:23;-12674.91;;;12.63;100.00
14594;BME280;7383;52.354;9.756;2022-09-20T06:45:49;-12675.59;;;12.67;100.00
14594;BME280;7383;52.354;9.756;2022-09-20T06:48:16;-12676.31;;;12.71;100.00
14594;BME280;7383;52.354;9.756;2022-09-20T06:50:43;-12676.38;;;12.71;100.00
14594;BME280;7383;52.354;9.756;2022-09-20T06:53:14;-12677.34;;;12.77;100.00
14594;BME280;7383;52.354;9.756;2022-09-20T06:55:42;-12677.19;;;12.76;100.00
14594;BME280;7383;52.354;9.756;2022-09-20T06:58:09;-12677.59;;;12.78;100.00
14594;BME280;7383;52.354;9.756;2022-09-20T07:00:36;-12678.31;;;12.82;100.00
14594;BME280;7383;52.354;9.756;2022-09-20T07:03:04;-12679.53;;;12.90;100.00
14594;BME280;7383;52.354;9.756;2022-09-20T07:05:31;-12680.31;;;12.94;100.00
14594;BME280;7383;52.354;9.756;2022-09-20T07:07:58;-12680.22;;;12.94;100.00
14594;BME280;7383;52.354;9.756;2022-09-20T07:10:27;-12680.66;;;12.96;100.00
14594;BME280;7383;52.354;9.756;2022-09-20T07:12:54;-12680.91;;;12.98;100.00
14594;BME280;7383;52.354;9.756;2022-09-20T07:15:21;-12680.22;;;12.94;100.00
14594;BME280;7383;52.354;9.756;2022-09-20T07:17:49;-12680.41;;;12.95;100.00
14594;BME280;7383;52.354;9.756;2022-09-20T07:20:15;-12680.56;;;12.96;100.00
14594;BME280;7383;52.354;9.756;2022-09-20T07:22:43;-12680.84;;;12.97;100.00
14594;BME280;7383;52.354;9.756;2022-09-20T07:25:10;-12680.47;;;12.95;100.00
14594;BME280;7383;52.354;9.756;2022-09-20T07:27:38;-12680.56;;;12.96;100.00
14594;BME280;7383;52.354;9.756;2022-09-20T07:30:06;-12680.75;;;12.97;100.00
14594;BME280;7383;52.354;9.756;2022-09-20T07:32:33;-12680.22;;;12.94;100.00
14594;BME280;7383;52.354;9.756;2022-09-20T07:34:59;-12680.75;;;12.97;100.00
14594;BME280;7383;52.354;9.756;2022-09-20T07:37:26;-12680.75;;;12.97;100.00
14594;BME280;7383;52.354;9.756;2022-09-20T07:39:53;-12682.66;;;13.08;100.00
14594;BME280;7383;52.354;9.756;2022-09-20T07:42:19;-12684.91;;;13.21;100.00
14594;BME280;7383;52.354;9.756;2022-09-20T07:44:47;-12688.13;;;13.40;100.00
14594;BME280;7383;52.354;9.756;2022-09-20T07:47:15;-12689.88;;;13.50;100.00
14594;BME280;7383;52.354;9.756;2022-09-20T07:49:42;-12691.09;;;13.57;100.00
14594;BME280;7383;52.354;9.756;2022-09-20T07:52:09;-12691.53;;;13.59;100.00
14594;BME280;7383;52.354;9.756;2022-09-20T07:54:36;-12692.22;;;13.63;100.00
14594;BME280;7383;52.354;9.756;2022-09-20T07:57:04;-12693.53;;;13.71;100.00
14594;BME280;7383;52.354;9.756;2022-09-20T07:59:30;-12694.41;;;13.76;100.00
14594;BME280;7383;52.354;9.756;2022-09-20T08:01:58;-12694.41;;;13.76;100.00
14594;BME280;7383;52.354;9.756;2022-09-20T08:04:24;-12693.53;;;13.71;100.00
14594;BME280;7383;52.354;9.756;2022-09-20T08:06:51;-12692.47;;;13.65;100.00
14594;BME280;7383;52.354;9.756;2022-09-20T08:09:17;-12693.34;;;13.70;100.00
14594;BME280;7383;52.354;9.756;2022-09-20T08:11:44;-12693.78;;;13.72;100.00
14594;BME280;7383;52.354;9.756;2022-09-20T08:14:13;-12694.31;;;13.75;100.00
14594;BME280;7383;52.354;9.756;2022-09-20T08:16:42;-12694.13;;;13.74;100.00
14594;BME280;7383;52.354;9.756;2022-09-20T08:19:15;-12694.06;;;13.74;100.00
14594;BME280;7383;52.354;9.756;2022-09-20T08:21:42;-12694.56;;;13.77;100.00
14594;BME280;7383;52.354;9.756;2022-09-20T08:24:14;-12696.84;;;13.90;100.00
14594;BME280;7383;52.354;9.756;2022-09-20T08:26:42;-12698.91;;;14.02;100.00
14594;BME280;7383;52.354;9.756;2022-09-20T08:29:09;-12701.16;;;14.15;100.00
14594;BME280;7383;52.354;9.756;2022-09-20T08:31:37;-12703.69;;;14.30;100.00
14594;BME280;7383;52.354;9.756;2022-09-20T08:34:07;-12705.94;;;14.43;100.00
14594;BME280;7383;52.354;9.756;2022-09-20T08:36:39;-12707.78;;;14.54;100.00
14594;BME280;7383;52.354;9.756;2022-09-20T08:39:06;-12707.84;;;14.54;100.00
14594;BME280;7383;52.354;9.756;2022-09-20T08:41:35;-12707.50;;;14.52;100.00
14594;BME280;7383;52.354;9.756;2022-09-20T08:44:09;-12707.50;;;14.52;100.00
14594;BME280;7383;52.354;9.756;2022-09-20T08:46:41;-12707.84;;;14.54;100.00
14594;BME280;7383;52.354;9.756;2022-09-20T08:49:14;-12708.22;;;14.56;100.00
14594;BME280;7383;52.354;9.756;2022-09-20T08:51:43;-12708.22;;;14.56;100.00
14594;BME280;7383;52.354;9.756;2022-09-20T08:54:13;-12708.22;;;14.56;100.00
14594;BME280;7383;52.354;9.756;2022-09-20T08:56:40;-12708.22;;;14.56;100.00
14594;BME280;7383;52.354;9.756;2022-09-20T08:59:13;-12708.13;;;14.56;100.00
14594;BME280;7383;52.354;9.756;2022-09-20T09:01:44;-12707.94;;;14.55;100.00
14594;BME280;7383;52.354;9.756;2022-09-20T09:04:13;-12707.44;;;14.52;100.00
14594;BME280;7383;52.354;9.756;2022-09-20T09:06:40;-12707.44;;;14.52;100.00
14594;BME280;7383;52.354;9.756;2022-09-20T09:09:16;-12707.94;;;14.55;100.00
14594;BME280;7383;52.354;9.756;2022-09-20T09:11:43;-12707.34;;;14.51;100.00
14594;BME280;7383;52.354;9.756;2022-09-20T09:14:15;-12706.72;;;14.48;100.00
14594;BME280;7383;52.354;9.756;2022-09-20T09:17:01;-12707.16;;;14.50;100.00
14594;BME280;7383;52.354;9.756;2022-09-20T09:19:29;-12706.91;;;14.49;100.00
14594;BME280;7383;52.354;9.756;2022-09-20T09:21:57;-12707.16;;;14.50;100.00
14594;BME280;7383;52.354;9.756;2022-09-20T09:24:28;-12707.94;;;14.55;100.00
14594;BME280;7383;52.354;9.756;2022-09-20T09:27:05;-12708.03;;;14.55;100.00
14594;BME280;7383;52.354;9.756;2022-09-20T09:29:34;-12707.78;;;14.54;100.00
14594;BME280;7383;52.354;9.756;2022-09-20T09:32:18;-12707.78;;;14.54;100.00
14594;BME280;7383;52.354;9.756;2022-09-20T09:34:46;-12707.44;;;14.52;100.00
14594;BME280;7383;52.354;9.756;2022-09-20T09:37:22;-12708.47;;;14.58;100.00
14594;BME280;7383;52.354;9.756;2022-09-20T09:40:05;-12709.59;;;14.64;100.00
14594;BME280;7383;52.354;9.756;2022-09-20T09:42:32;-12710.22;;;14.68;100.00
14594;BME280;7383;52.354;9.756;2022-09-20T09:45:10;-12710.47;;;14.69;100.00
14594;BME280;7383;52.354;9.756;2022-09-20T09:47:37;-12709.84;;;14.66;100.00
14594;BME280;7383;52.354;9.756;2022-09-20T09:50:04;-12709.78;;;14.65;100.00
14594;BME280;7383;52.354;9.756;2022-09-20T09:52:31;-12710.22;;;14.68;100.00
14594;BME280;7383;52.354;9.756;2022-09-20T09:55:01;-12711.41;;;14.75;100.00
14594;BME280;7383;52.354;9.756;2022-09-20T09:57:38;-12712.19;;;14.79;100.00
14594;BME280;7383;52.354;9.756;2022-09-20T10:00:11;-12712.13;;;14.79;100.00
14594;BME280;7383;52.354;9.756;2022-09-20T10:03:10;-12712.28;;;14.80;100.00
14594;BME280;7383;52.354;9.756;2022-09-20T10:05:47;-12712.63;;;14.82;100.00
14594;BME280;7383;52.354;9.756;2022-09-20T10:08:24;-12714.03;;;14.90;100.00
14594;BME280;7383;52.354;9.756;2022-09-20T10:11:04;-12715.50;;;14.99;100.00
14594;BME280;7383;52.354;9.756;2022-09-20T10:13:39;-12715.06;;;14.96;100.00
14594;BME280;7383;52.354;9.756;2022-09-20T10:16:15;-12715.06;;;14.96;100.00
14594;BME280;7383;52.354;9.756;2022-09-20T10:18:48;-12716.88;;;15.07;100.00
14594;BME280;7383;52.354;9.756;2022-09-20T10:21:34;-12719.41;;;15.21;100.00
14594;BME280;7383;52.354;9.756;2022-09-20T10:24:14;-12720.97;;;15.31;100.00
14594;BME280;7383;52.354;9.756;2022-09-20T10:29:47;-12724.94;;;15.54;100.00
14594;BME280;7383;52.354;9.756;2022-09-20T10:32:31;-12725.91;;;15.59;100.00
14594;BME280;7383;52.354;9.756;2022-09-20T10:35:20;-12727.53;;;15.69;100.00
14594;BME280;7383;52.354;9.756;2022-09-20T10:37:59;-12728.75;;;15.76;100.00
14594;BME280;7383;52.354;9.756;2022-09-20T10:40:33;-12730.06;;;15.84;100.00
14594;BME280;7383;52.354;9.756;2022-09-20T10:43:29;-12733.09;;;16.01;100.00
14594;BME280;7383;52.354;9.756;2022-09-20T10:46:07;-12733.69;;;16.05;100.00
14594;BME280;7383;52.354;9.756;2022-09-20T10:48:40;-12734.31;;;16.08;100.00
14594;BME280;7383;52.354;9.756;2022-09-20T10:51:15;-12735.16;;;16.13;100.00
14594;BME280;7383;52.354;9.756;2022-09-20T10:53:55;-12737.50;;;16.27;100.00
14594;BME280;7383;52.354;9.756;2022-09-20T10:56:27;-12741.31;;;16.49;100.00
14594;BME280;7383;52.354;9.756;2022-09-20T10:59:18;-12743.03;;;16.59;100.00
14594;BME280;7383;52.354;9.756;2022-09-20T11:02:01;-12741.66;;;16.51;100.00
14594;BME280;7383;52.354;9.756;2022-09-20T11:05:07;-12740.19;;;16.43;100.00
14594;BME280;7383;52.354;9.756;2022-09-20T11:07:51;-12737.94;;;16.30;100.00
14594;BME280;7383;52.354;9.756;2022-09-20T11:10:24;-12738.28;;;16.32;100.00
14594;BME280;7383;52.354;9.756;2022-09-20T11:12:57;-12740.19;;;16.43;100.00
14594;BME280;7383;52.354;9.756;2022-09-20T11:15:29;-12744.84;;;16.70;100.00
14594;BME280;7383;52.354;9.756;2022-09-20T11:18:04;-12745.47;;;16.73;100.00
14594;BME280;7383;52.354;9.756;2022-09-20T11:20:35;-12743.81;;;16.64;100.00
14594;BME280;7383;52.354;9.756;2022-09-20T11:23:08;-12743.13;;;16.60;100.00
14594;BME280;7383;52.354;9.756;2022-09-20T11:25:41;-12746.50;;;16.80;100.00
14594;BME280;7383;52.354;9.756;2022-09-20T11:28:13;-12749.44;;;16.97;100.00
14594;BME280;7383;52.354;9.756;2022-09-20T11:30:52;-12750.66;;;17.04;100.00
14594;BME280;7383;52.354;9.756;2022-09-20T11:33:25;-12749.00;;;16.94;100.00
14594;BME280;7383;52.354;9.756;2022-09-20T11:35:57;-12750.91;;;17.05;100.00
14594;BME280;7383;52.354;9.756;2022-09-20T11:38:27;-12751.50;;;17.09;100.00
14594;BME280;7383;52.354;9.756;2022-09-20T11:41:01;-12753.31;;;17.19;100.00
14594;BME280;7383;52.354;9.756;2022-09-20T11:43:28;-12753.25;;;17.19;100.00
14594;BME280;7383;52.354;9.756;2022-09-20T11:45:59;-12755.50;;;17.32;100.00
14594;BME280;7383;52.354;9.756;2022-09-20T11:48:29;-12758.25;;;17.48;100.00
14594;BME280;7383;52.354;9.756;2022-09-20T11:51:32;-12761.53;;;17.67;100.00
14594;BME280;7383;52.354;9.756;2022-09-20T11:54:26;-12764.91;;;17.87;100.00
14594;BME280;7383;52.354;9.756;2022-09-20T11:56:57;-12768.09;;;18.06;100.00
14594;BME280;7383;52.354;9.756;2022-09-20T11:59:29;-12769.03;;;18.11;100.00
14594;BME280;7383;52.354;9.756;2022-09-20T12:02:01;-12767.84;;;18.04;100.00
14594;BME280;7383;52.354;9.756;2022-09-20T12:04:31;-12765.06;;;17.88;100.00
14594;BME280;7383;52.354;9.756;2022-09-20T12:07:02;-12765.25;;;17.89;100.00
14594;BME280;7383;52.354;9.756;2022-09-20T12:09:31;-12764.22;;;17.83;100.00
14594;BME280;7383;52.354;9.756;2022-09-20T12:11:59;-12762.56;;;17.74;100.00
14594;BME280;7383;52.354;9.756;2022-09-20T12:14:38;-12768.88;;;18.10;100.00
14594;BME280;7383;52.354;9.756;2022-09-20T12:26:37;-12785.00;;;19.05;100.00
14594;BME280;7383;52.354;9.756;2022-09-20T12:32:49;-12782.41;;;18.90;100.00
14594;BME280;7383;52.354;9.756;2022-09-20T12:38:27;-12768.78;;;18.10;100.00
14594;BME280;7383;52.354;9.756;2022-09-20T12:41:07;-12797.63;;;19.79;100.00
14594;BME280;7383;52.354;9.756;2022-09-20T12:43:36;-12853.38;;;23.08;100.00
14594;BME280;7383;52.354;9.756;2022-09-20T12:46:04;-12906.06;;;26.20;100.00
14594;BME280;7383;52.354;9.756;2022-09-20T12:48:36;-12948.28;;;28.71;100.00
14594;BME280;7383;52.354;9.756;2022-09-20T12:51:05;-12981.34;;;30.69;100.00
14594;BME280;7383;52.354;9.756;2022-09-20T12:54:02;-12991.28;;;31.29;100.00
14594;BME280;7383;52.354;9.756;2022-09-20T12:56:34;-12986.41;;;31.00;100.00
14594;BME280;7383;52.354;9.756;2022-09-20T12:59:02;-12997.19;;;31.64;100.00
14594;BME280;7383;52.354;9.756;2022-09-20T13:01:35;-13005.31;;;32.13;100.00
14594;BME280;7383;52.354;9.756;2022-09-20T13:13:22;-13079.53;;;36.62;100.00
14594;BME280;7383;52.354;9.756;2022-09-20T13:15:52;-13089.91;;;37.25;100.00
14594;BME280;7383;52.354;9.756;2022-09-20T13:18:20;-13099.13;;;37.81;100.00
14594;BME280;7383;52.354;9.756;2022-09-20T13:20:47;-13059.97;;;35.43;100.00
14594;BME280;7383;52.354;9.756;2022-09-20T13:23:19;-13031.22;;;33.70;100.00
14594;BME280;7383;52.354;9.756;2022-09-20T13:25:50;-13038.59;;;34.14;100.00
14594;BME280;7383;52.354;9.756;2022-09-20T13:28:25;-13000.63;;;31.85;100.00
14594;BME280;7383;52.354;9.756;2022-09-20T13:31:28;-12951.91;;;28.93;100.00
14594;BME280;7383;52.354;9.756;2022-09-20T13:34:11;-12914.56;;;26.70;100.00
14594;BME280;7383;52.354;9.756;2022-09-20T13:36:38;-12892.78;;;25.41;100.00
14594;BME280;7383;52.354;9.756;2022-09-20T13:39:06;-12881.97;;;24.77;100.00
14594;BME280;7383;52.354;9.756;2022-09-20T13:41:34;-12889.91;;;25.24;100.00
14594;BME280;7383;52.354;9.756;2022-09-20T13:44:02;-12882.56;;;24.80;100.00
14594;BME280;7383;52.354;9.756;2022-09-20T13:46:30;-12865.34;;;23.78;100.00
14594;BME280;7383;52.354;9.756;2022-09-20T13:49:08;-12854.41;;;23.14;100.00
14594;BME280;7383;52.354;9.756;2022-09-20T13:51:37;-12843.78;;;22.51;100.00
14594;BME280;7383;52.354;9.756;2022-09-20T13:54:24;-12834.56;;;21.96;100.00
14594;BME280;7383;52.354;9.756;2022-09-20T13:56:54;-12825.03;;;21.40;100.00
14594;BME280;7383;52.354;9.756;2022-09-20T13:59:22;-12818.69;;;21.03;100.00
14594;BME280;7383;52.354;9.756;2022-09-20T14:01:50;-12813.03;;;20.70;100.00
14594;BME280;7383;52.354;9.756;2022-09-20T14:04:20;-12807.63;;;20.38;100.00
14594;BME280;7383;52.354;9.756;2022-09-20T14:06:48;-12804.59;;;20.20;100.00
14594;BME280;7383;52.354;9.756;2022-09-20T14:09:22;-12800.91;;;19.98;100.00
14594;BME280;7383;52.354;9.756;2022-09-20T14:11:53;-12798.41;;;19.84;100.00
14594;BME280;7383;52.354;9.756;2022-09-20T14:14:20;-12796.00;;;19.70;100.00
14594;BME280;7383;52.354;9.756;2022-09-20T14:16:48;-12793.00;;;19.52;100.00
14594;BME280;7383;52.354;9.756;2022-09-20T14:19:17;-12790.66;;;19.38;100.00
14594;BME280;7383;52.354;9.756;2022-09-20T14:21:45;-12790.41;;;19.37;100.00
14594;BME280;7383;52.354;9.756;2022-09-20T14:24:25;-12791.19;;;19.41;100.00
14594;BME280;7383;52.354;9.756;2022-09-20T14:27:22;-12791.19;;;19.41;100.00
14594;BME280;7383;52.354;9.756;2022-09-20T14:29:50;-12788.69;;;19.27;100.00
14594;BME280;7383;52.354;9.756;2022-09-20T14:32:38;-12789.63;;;19.32;100.00
14594;BME280;7383;52.354;9.756;2022-09-20T14:35:15;-12789.38;;;19.31;100.00
14594;BME280;7383;52.354;9.756;2022-09-20T14:37:45;-12790.50;;;19.37;100.00
14594;BME280;7383;52.354;9.756;2022-09-20T14:40:19;-12792.81;;;19.51;100.00
14594;BME280;7383;52.354;9.756;2022-09-20T14:42:50;-12794.53;;;19.61;100.00
14594;BME280;7383;52.354;9.756;2022-09-20T14:45:21;-12796.94;;;19.75;100.00
14594;BME280;7383;52.354;9.756;2022-09-20T14:47:55;-12799.44;;;19.90;100.00
14594;BME280;7383;52.354;9.756;2022-09-20T14:50:24;-12801.16;;;20.00;100.00
14594;BME280;7383;52.354;9.756;2022-09-20T14:53:19;-12818.34;;;21.01;100.00
14594;BME280;7383;52.354;9.756;2022-09-20T14:55:58;-12847.66;;;22.74;100.00
14594;BME280;7383;52.354;9.756;2022-09-20T14:58:26;-12853.56;;;23.09;100.00
14594;BME280;7383;52.354;9.756;2022-09-20T15:00:55;-12857.31;;;23.31;100.00
14594;BME280;7383;52.354;9.756;2022-09-20T15:03:27;-12848.94;;;22.81;100.00
14594;BME280;7383;52.354;9.756;2022-09-20T15:05:55;-12837.28;;;22.13;100.00
14594;BME280;7383;52.354;9.756;2022-09-20T15:08:22;-12824.78;;;21.39;100.00
14594;BME280;7383;52.354;9.756;2022-09-20T15:10:48;-12818.00;;;20.99;100.00
14594;BME280;7383;52.354;9.756;2022-09-20T15:13:16;-12813.09;;;20.70;100.00
14594;BME280;7383;52.354;9.756;2022-09-20T15:15:45;-12809.00;;;20.46;100.00
14594;BME280;7383;52.354;9.756;2022-09-20T15:18:18;-12805.91;;;20.28;100.00
14594;BME280;7383;52.354;9.756;2022-09-20T15:20:47;-12805.53;;;20.26;100.00
14594;BME280;7383;52.354;9.756;2022-09-20T15:23:14;-12803.81;;;20.15;100.00
14594;BME280;7383;52.354;9.756;2022-09-20T15:25:40;-12804.16;;;20.18;100.00
14594;BME280;7383;52.354;9.756;2022-09-20T15:28:11;-12806.41;;;20.31;100.00
14594;BME280;7383;52.354;9.756;2022-09-20T15:30:39;-12801.00;;;19.99;100.00
14594;BME280;7383;52.354;9.756;2022-09-20T15:33:07;-12802.53;;;20.08;100.00
14594;BME280;7383;52.354;9.756;2022-09-20T15:35:34;-12801.00;;;19.99;100.00
14594;BME280;7383;52.354;9.756;2022-09-20T15:38:00;-12818.69;;;21.03;100.00
14594;BME280;7383;52.354;9.756;2022-09-20T15:40:27;-12845.50;;;22.61;100.00
14594;BME280;7383;52.354;9.756;2022-09-20T15:42:54;-12843.47;;;22.49;100.00
14594;BME280;7383;52.354;9.756;2022-09-20T15:45:23;-12833.69;;;21.91;100.00
14594;BME280;7383;52.354;9.756;2022-09-20T15:47:50;-12818.84;;;21.04;100.00
14594;BME280;7383;52.354;9.756;2022-09-20T15:50:20;-12806.50;;;20.31;100.00